createdAt,value
2023-05-17T00:00:19.264Z,52.34
2023-05-17T00:03:03.340Z,56.85
2023-05-17T00:05:47.352Z,56.45
2023-05-17T00:08:32.328Z,57.20
2023-05-17T00:11:16.608Z,57.24
2023-05-17T00:14:00.605Z,59.24
2023-05-17T00:16:44.556Z,60.89
2023-05-17T00:19:29.002Z,62.34
2023-05-17T00:22:12.818Z,62.39
2023-05-17T00:24:57.118Z,60.48
2023-05-17T00:27:41.186Z,60.52
2023-05-17T00:30:26.263Z,60.70
2023-05-17T00:33:10.877Z,61.42
2023-05-17T00:35:54.765Z,63.77
2023-05-17T00:38:38.694Z,63.00
2023-05-17T00:41:22.892Z,64.16
2023-05-17T00:44:06.924Z,65.28
2023-05-17T00:46:50.836Z,62.60
2023-05-17T00:49:35.006Z,67.68
2023-05-17T00:52:18.980Z,67.50
2023-05-17T00:55:03.727Z,66.67
2023-05-17T00:57:47.948Z,68.07
2023-05-17T01:00:33.596Z,66.47
2023-05-17T01:03:17.531Z,65.28
2023-05-17T01:06:01.725Z,66.94
2023-05-17T01:08:45.950Z,65.96
2023-05-17T01:11:53.567Z,67.55
2023-05-17T01:15:06.752Z,69.68
2023-05-17T01:18:11.544Z,66.44
2023-05-17T01:21:01.538Z,65.73
2023-05-17T01:24:04.349Z,66.77
2023-05-17T01:26:53.246Z,68.22
2023-05-17T01:29:40.315Z,67.36
2023-05-17T01:32:26.932Z,66.64
2023-05-17T01:35:14.091Z,65.82
2023-05-17T01:37:58.021Z,66.32
2023-05-17T01:41:01.996Z,64.69
2023-05-17T01:43:58.158Z,65.61
2023-05-17T01:46:44.240Z,66.11
2023-05-17T01:49:35.531Z,65.88
2023-05-17T01:52:31.977Z,64.82
2023-05-17T01:55:53.022Z,65.66
2023-05-17T01:58:51.043Z,66.18
2023-05-17T02:01:37.112Z,65.65
2023-05-17T02:04:21.198Z,65.66
2023-05-17T02:07:05.453Z,65.85
2023-05-17T02:09:49.277Z,67.79
2023-05-17T02:12:33.125Z,67.67
2023-05-17T02:15:17.246Z,65.82
2023-05-17T02:18:01.313Z,65.66
2023-05-17T02:20:45.284Z,65.38
2023-05-17T02:23:31.031Z,67.95
2023-05-17T02:26:15.544Z,66.36
2023-05-17T02:28:59.576Z,67.86
2023-05-17T02:31:43.457Z,67.36
2023-05-17T02:34:27.562Z,66.31
2023-05-17T02:37:11.642Z,66.42
2023-05-17T02:39:55.508Z,68.18
2023-05-17T02:42:39.561Z,66.74
2023-05-17T02:45:23.305Z,65.40
2023-05-17T02:48:09.224Z,66.72
2023-05-17T02:50:56.542Z,65.77
2023-05-17T02:53:40.336Z,66.07
2023-05-17T02:56:24.252Z,65.54
2023-05-17T02:59:08.210Z,65.86
2023-05-17T03:01:54.060Z,65.76
2023-05-17T03:04:38.347Z,66.72
2023-05-17T03:07:22.365Z,65.70
2023-05-17T03:10:07.499Z,65.77
2023-05-17T03:12:56.508Z,65.87
2023-05-17T03:15:43.246Z,66.81
2023-05-17T03:54:36.539Z,70.65
2023-05-17T03:57:22.387Z,74.09
2023-05-17T04:06:28.407Z,76.18
2023-05-17T04:09:14.069Z,76.92
2023-05-17T04:11:57.733Z,76.75
2023-05-17T04:14:41.584Z,76.97
2023-05-17T04:17:25.669Z,77.52
2023-05-17T04:20:10.475Z,76.71
2023-05-17T04:22:54.464Z,77.07
2023-05-17T04:25:38.747Z,78.36
2023-05-17T04:28:23.299Z,77.86
2023-05-17T04:31:08.881Z,75.15
2023-05-17T04:33:53.139Z,76.07
2023-05-17T04:36:37.183Z,76.34
2023-05-17T04:39:22.141Z,76.95
2023-05-17T04:42:06.526Z,77.20
2023-05-17T04:44:54.246Z,76.73
2023-05-17T04:47:38.907Z,77.52
2023-05-17T04:50:23.147Z,77.17
2023-05-17T04:53:07.745Z,77.42
2023-05-17T04:55:53.712Z,75.78
2023-05-17T04:58:43.370Z,76.24
2023-05-17T05:01:29.695Z,76.85
2023-05-17T05:04:15.084Z,76.77
2023-05-17T05:07:01.207Z,76.95
2023-05-17T05:09:46.198Z,74.93
2023-05-17T05:12:32.414Z,77.34
2023-05-17T05:15:17.713Z,76.76
2023-05-17T05:18:09.770Z,76.75
2023-05-17T05:20:54.116Z,74.65
2023-05-17T05:23:48.496Z,75.05
2023-05-17T05:26:40.474Z,76.04
2023-05-17T05:29:27.404Z,74.83
2023-05-17T05:32:11.587Z,74.72
2023-05-17T05:35:01.824Z,74.13
2023-05-17T05:37:46.360Z,73.77
2023-05-17T05:40:33.528Z,74.29
2023-05-17T05:43:19.133Z,73.78
2023-05-17T05:46:04.278Z,72.60
2023-05-17T05:48:48.188Z,71.42
2023-05-17T05:51:32.749Z,70.15
2023-05-17T05:54:18.188Z,70.08
2023-05-17T05:57:02.502Z,69.44
2023-05-17T05:59:46.697Z,69.70
2023-05-17T06:02:31.054Z,70.40
2023-05-17T06:05:15.382Z,70.19
2023-05-17T06:08:00.023Z,69.67
2023-05-17T06:10:44.221Z,70.26
2023-05-17T06:13:28.621Z,68.61
2023-05-17T06:16:15.452Z,68.28
2023-05-17T06:19:00.689Z,68.36
2023-05-17T06:21:45.524Z,67.90
2023-05-17T06:24:29.515Z,66.88
2023-05-17T06:27:14.197Z,65.27
2023-05-17T06:29:58.003Z,64.36
2023-05-17T06:32:44.379Z,64.99
2023-05-17T06:35:31.445Z,63.90
2023-05-17T06:38:20.632Z,62.56
2023-05-17T06:41:05.601Z,60.74
2023-05-17T06:43:50.019Z,60.53
2023-05-17T06:46:34.135Z,59.86
2023-05-17T06:49:18.745Z,60.75
2023-05-17T06:52:03.757Z,61.03
2023-05-17T06:54:47.730Z,61.14
2023-05-17T06:57:33.260Z,59.43
2023-05-17T07:00:17.908Z,59.46
2023-05-17T07:05:59.337Z,57.99
2023-05-17T07:08:43.177Z,57.65
2023-05-17T07:11:27.683Z,56.49
2023-05-17T07:14:13.026Z,57.04
2023-05-17T07:16:56.938Z,56.90
2023-05-17T07:19:40.946Z,56.29
2023-05-17T07:22:27.884Z,57.08
2023-05-17T07:25:13.435Z,55.51
2023-05-17T07:28:02.723Z,55.79
2023-05-17T07:30:47.300Z,56.44
2023-05-17T07:33:31.045Z,56.12
2023-05-17T07:36:15.140Z,55.64
2023-05-17T07:38:59.002Z,56.41
2023-05-17T07:41:42.943Z,57.33
2023-05-17T07:44:27.890Z,54.52
2023-05-17T07:47:12.528Z,55.25
2023-05-17T07:49:56.699Z,54.58
2023-05-17T07:52:41.282Z,54.12
2023-05-17T07:55:26.611Z,54.71
2023-05-17T07:58:12.393Z,55.04
2023-05-17T08:00:56.945Z,53.53
2023-05-17T08:03:48.310Z,52.20
2023-05-17T08:06:33.187Z,52.92
2023-05-17T08:09:17.386Z,52.23
2023-05-17T08:12:02.639Z,52.40
2023-05-17T08:14:47.623Z,52.10
2023-05-17T08:17:32.092Z,51.06
2023-05-17T08:20:16.160Z,51.61
2023-05-17T08:25:57.456Z,51.15
2023-05-17T08:28:41.371Z,49.50
2023-05-17T08:31:25.412Z,49.81
2023-05-17T08:34:09.631Z,50.14
2023-05-17T08:36:54.058Z,48.95
2023-05-17T08:39:38.223Z,48.40
2023-05-17T08:42:26.283Z,47.86
2023-05-17T08:45:12.463Z,46.04
2023-05-17T08:47:57.793Z,44.84
2023-05-17T08:50:44.002Z,44.83
2023-05-17T08:53:28.969Z,45.76
2023-05-17T08:56:16.126Z,45.03
2023-05-17T08:59:00.669Z,45.05
2023-05-17T09:01:50.186Z,44.85
2023-05-17T09:04:36.231Z,45.17
2023-05-17T09:07:21.706Z,46.22
2023-05-17T09:10:07.434Z,44.79
2023-05-17T09:12:53.049Z,44.56
2023-05-17T09:15:38.883Z,43.01
2023-05-17T09:18:34.051Z,41.99
2023-05-17T09:21:25.440Z,42.57
2023-05-17T09:24:09.857Z,43.59
2023-05-17T09:26:58.390Z,41.93
2023-05-17T09:29:46.309Z,41.33
2023-05-17T09:35:36.410Z,42.22
2023-05-17T09:38:26.889Z,42.36
2023-05-17T09:41:10.931Z,41.30
2023-05-17T09:44:00.257Z,41.21
2023-05-17T09:46:48.979Z,40.73
2023-05-17T09:49:32.608Z,41.51
2023-05-17T09:52:20.896Z,41.71
2023-05-17T09:55:04.682Z,40.36
2023-05-17T09:57:48.921Z,40.19
2023-05-17T10:00:34.195Z,40.39
2023-05-17T10:03:18.251Z,39.70
2023-05-17T10:06:06.212Z,39.46
2023-05-17T10:08:55.265Z,40.55
2023-05-17T10:11:41.845Z,39.50
2023-05-17T10:14:34.611Z,39.82
2023-05-17T10:17:21.123Z,39.96
2023-05-17T10:20:07.174Z,39.34
2023-05-17T10:22:50.936Z,40.33
2023-05-17T10:25:35.799Z,41.00
2023-05-17T10:28:21.141Z,36.96
2023-05-17T10:31:06.687Z,35.81
2023-05-17T10:33:52.189Z,34.68
2023-05-17T10:36:36.240Z,35.42
2023-05-17T10:39:22.327Z,37.66
2023-05-17T10:42:14.887Z,36.96
2023-05-17T10:45:01.923Z,36.63
2023-05-17T10:47:46.397Z,36.70
2023-05-17T10:50:30.357Z,37.47
2023-05-17T10:53:14.388Z,38.76
2023-05-17T10:55:58.716Z,36.54
2023-05-17T10:58:44.940Z,38.26
2023-05-17T11:02:03.573Z,36.88
2023-05-17T11:04:56.372Z,36.45
2023-05-17T11:07:41.060Z,36.60
2023-05-17T11:10:24.771Z,38.07
2023-05-17T11:13:27.527Z,37.20
2023-05-17T11:16:15.275Z,36.66
2023-05-17T11:19:12.240Z,37.03
2023-05-17T11:21:56.094Z,36.38
2023-05-17T11:24:44.900Z,35.33
2023-05-17T11:27:46.902Z,35.90
2023-05-17T11:30:32.726Z,35.44
2023-05-17T11:33:25.452Z,35.94
2023-05-17T11:36:23.067Z,33.94
2023-05-17T11:39:15.655Z,36.18
2023-05-17T11:41:59.243Z,36.75
2023-05-17T11:44:43.178Z,37.48
2023-05-17T11:47:28.405Z,36.07
2023-05-17T11:50:14.720Z,36.44
2023-05-17T11:53:00.368Z,36.79
2023-05-17T11:55:50.454Z,37.38
2023-05-17T11:58:35.494Z,36.09
2023-05-17T12:01:19.062Z,35.97
2023-05-17T12:04:03.781Z,33.39
2023-05-17T12:06:47.525Z,34.71
2023-05-17T12:09:31.648Z,34.82
2023-05-17T12:12:15.377Z,35.05
2023-05-17T12:14:58.984Z,36.01
2023-05-17T12:17:49.373Z,35.80
2023-05-17T12:20:35.964Z,35.00
2023-05-17T12:23:30.610Z,35.41
2023-05-17T12:26:16.349Z,37.01
2023-05-17T12:29:01.327Z,36.00
2023-05-17T12:31:50.868Z,34.40
2023-05-17T12:34:35.540Z,35.27
2023-05-17T12:37:19.324Z,34.21
2023-05-17T12:40:05.288Z,35.28
2023-05-17T12:42:48.976Z,34.85
2023-05-17T12:45:34.318Z,34.42
2023-05-17T12:48:17.958Z,35.13
2023-05-17T12:51:21.632Z,35.77
2023-05-17T12:54:05.214Z,35.37
2023-05-17T12:56:49.034Z,34.39
2023-05-17T12:59:36.599Z,34.60
2023-05-17T13:02:20.935Z,33.74
2023-05-17T13:05:24.143Z,33.27
2023-05-17T13:08:22.059Z,33.02
2023-05-17T13:11:14.677Z,33.21
2023-05-17T13:13:58.292Z,34.76
2023-05-17T13:16:43.001Z,32.80
2023-05-17T13:19:26.927Z,33.90
2023-05-17T13:22:10.730Z,33.39
2023-05-17T13:24:55.750Z,33.40
2023-05-17T13:27:39.368Z,33.30
2023-05-17T13:30:22.926Z,32.19
2023-05-17T13:33:06.585Z,32.44
2023-05-17T13:35:50.558Z,31.96
2023-05-17T13:38:34.334Z,31.84
2023-05-17T13:41:17.966Z,33.03
2023-05-17T13:44:01.869Z,31.96
2023-05-17T13:46:45.649Z,32.05
2023-05-17T13:49:29.215Z,32.65
2023-05-17T13:52:13.530Z,32.21
2023-05-17T13:54:57.876Z,32.12
2023-05-17T13:57:42.427Z,32.79
2023-05-17T14:00:26.073Z,32.75
2023-05-17T14:03:10.569Z,34.46
2023-05-17T14:05:54.481Z,33.17
2023-05-17T14:08:38.248Z,33.92
2023-05-17T14:11:21.834Z,34.78
2023-05-17T14:14:05.643Z,34.56
2023-05-17T14:16:49.219Z,33.58
2023-05-17T14:19:33.005Z,34.59
2023-05-17T14:22:16.890Z,35.16
2023-05-17T14:25:00.552Z,34.79
2023-05-17T14:27:44.186Z,35.04
2023-05-17T14:30:27.734Z,35.59
2023-05-17T14:33:11.743Z,35.25
2023-05-17T14:35:55.521Z,35.63
2023-05-17T14:38:39.370Z,34.46
2023-05-17T14:41:23.158Z,33.94
2023-05-17T14:44:06.808Z,35.17
2023-05-17T14:46:50.650Z,35.07
2023-05-17T14:49:34.379Z,33.87
2023-05-17T14:52:17.977Z,35.08
2023-05-17T14:55:02.159Z,35.60
2023-05-17T14:57:46.368Z,36.00
2023-05-17T15:00:30.021Z,35.18
2023-05-17T15:03:14.891Z,35.98
2023-05-17T15:05:59.140Z,34.90
2023-05-17T15:08:42.694Z,35.32
2023-05-17T15:11:26.342Z,34.09
2023-05-17T15:14:10.439Z,34.50
2023-05-17T15:16:54.070Z,35.25
2023-05-17T15:19:37.766Z,35.79
2023-05-17T15:22:21.426Z,34.98
2023-05-17T15:25:06.204Z,33.05
2023-05-17T15:27:50.184Z,34.33
2023-05-17T15:30:33.743Z,35.65
2023-05-17T15:33:17.351Z,34.79
2023-05-17T15:36:01.029Z,35.28
2023-05-17T15:38:45.075Z,34.62
2023-05-17T15:41:31.343Z,36.78
2023-05-17T15:44:15.180Z,35.34
2023-05-17T15:47:00.779Z,36.51
2023-05-17T15:49:45.912Z,36.16
2023-05-17T15:52:29.461Z,36.33
2023-05-17T15:55:13.438Z,36.55
2023-05-17T15:57:57.015Z,35.99
2023-05-17T16:00:40.734Z,35.18
2023-05-17T16:03:24.335Z,36.73
2023-05-17T16:06:08.027Z,35.77
2023-05-17T16:08:51.714Z,37.87
2023-05-17T16:11:35.362Z,35.35
2023-05-17T16:14:18.967Z,36.49
2023-05-17T16:17:05.104Z,36.18
2023-05-17T16:19:48.731Z,35.97
2023-05-17T16:22:33.204Z,35.85
2023-05-17T16:25:24.624Z,35.73
2023-05-17T16:28:25.906Z,35.24
2023-05-17T16:31:09.757Z,35.17
2023-05-17T16:33:53.432Z,34.90
2023-05-17T16:36:37.130Z,34.53
2023-05-17T16:39:21.107Z,35.83
2023-05-17T16:42:04.836Z,37.34
2023-05-17T16:44:48.403Z,37.57
2023-05-17T16:47:32.325Z,37.66
2023-05-17T16:50:16.325Z,35.77
2023-05-17T16:52:59.920Z,35.68
2023-05-17T16:55:43.604Z,36.82
2023-05-17T16:58:27.248Z,37.72
2023-05-17T17:01:10.846Z,37.47
2023-05-17T17:03:56.873Z,37.86
2023-05-17T17:06:40.632Z,38.60
2023-05-17T17:09:24.448Z,37.87
2023-05-17T17:12:22.941Z,37.78
2023-05-17T17:15:09.477Z,37.83
2023-05-17T17:17:53.135Z,37.72
2023-05-17T17:20:36.732Z,37.77
2023-05-17T17:23:20.358Z,37.09
2023-05-17T17:26:03.981Z,37.70
2023-05-17T17:28:47.660Z,36.80
2023-05-17T17:31:34.384Z,37.44
2023-05-17T17:34:17.892Z,37.45
2023-05-17T17:37:01.464Z,37.94
2023-05-17T17:39:45.061Z,38.10
2023-05-17T17:42:31.402Z,38.21
2023-05-17T17:45:15.671Z,37.79
2023-05-17T17:47:59.371Z,38.14
2023-05-17T17:50:42.988Z,38.23
2023-05-17T17:53:26.715Z,38.50
2023-05-17T17:56:10.250Z,38.48
2023-05-17T17:58:56.477Z,38.87
2023-05-17T18:01:40.097Z,39.23
2023-05-17T18:04:23.765Z,39.41
2023-05-17T18:07:07.987Z,39.30
2023-05-17T18:09:51.806Z,39.92
2023-05-17T18:12:35.589Z,39.37
2023-05-17T18:15:19.237Z,39.43
2023-05-17T18:18:02.995Z,40.14
2023-05-17T18:20:46.793Z,40.21
2023-05-17T18:23:30.395Z,40.79
2023-05-17T18:26:13.981Z,40.70
2023-05-17T18:28:57.665Z,40.43
2023-05-17T18:31:42.185Z,40.25
2023-05-17T18:34:25.854Z,40.39
2023-05-17T18:37:09.478Z,40.04
2023-05-17T18:39:54.309Z,40.30
2023-05-17T18:42:37.916Z,40.46
2023-05-17T18:45:21.781Z,40.24
2023-05-17T18:48:05.846Z,40.95
2023-05-17T18:50:49.449Z,41.27
2023-05-17T18:53:33.019Z,41.47
2023-05-17T18:56:22.873Z,41.47
2023-05-17T18:59:06.572Z,41.78
2023-05-17T19:01:50.330Z,41.90
2023-05-17T19:04:33.960Z,41.62
2023-05-17T19:07:17.588Z,41.90
2023-05-17T19:10:01.148Z,42.08
2023-05-17T19:12:45.758Z,42.15
2023-05-17T19:15:29.384Z,42.67
2023-05-17T19:18:13.073Z,42.80
2023-05-17T19:20:56.731Z,43.18
2023-05-17T19:23:40.465Z,43.16
2023-05-17T19:26:24.051Z,42.88
2023-05-17T19:29:07.684Z,43.37
2023-05-17T19:31:51.457Z,43.39
2023-05-17T19:34:35.092Z,43.78
2023-05-17T19:37:19.164Z,43.72
2023-05-17T19:40:06.136Z,43.64
2023-05-17T19:42:50.321Z,43.63
2023-05-17T19:45:33.989Z,43.68
2023-05-17T19:48:17.602Z,43.84
2023-05-17T19:51:01.207Z,43.98
2023-05-17T19:53:52.380Z,44.03
2023-05-17T19:56:37.359Z,45.12
2023-05-17T19:59:20.979Z,45.24
2023-05-17T20:02:04.686Z,44.69
2023-05-17T20:04:48.543Z,45.37
2023-05-17T20:07:33.507Z,45.09
2023-05-17T20:10:17.319Z,44.92
2023-05-17T20:13:01.174Z,44.82
2023-05-17T20:15:45.146Z,44.77
2023-05-17T20:18:30.740Z,44.89
2023-05-17T20:21:19.817Z,43.75
2023-05-17T20:24:06.808Z,42.77
2023-05-17T20:26:50.723Z,42.32
2023-05-17T20:29:34.920Z,44.91
2023-05-17T20:32:18.881Z,45.49
2023-05-17T20:35:02.604Z,46.25
2023-05-17T20:37:46.284Z,46.32
2023-05-17T20:40:30.066Z,46.94
2023-05-17T20:43:14.626Z,47.11
2023-05-17T20:45:58.410Z,46.68
2023-05-17T20:48:43.252Z,45.21
2023-05-17T20:51:27.852Z,43.91
2023-05-17T20:54:13.922Z,43.85
2023-05-17T20:57:00.709Z,47.50
2023-05-17T20:59:44.519Z,45.65
2023-05-17T21:02:28.207Z,43.58
2023-05-17T21:05:11.962Z,44.32
2023-05-17T21:07:56.764Z,44.68
2023-05-17T21:10:42.858Z,44.11
2023-05-17T21:13:27.198Z,44.27
2023-05-17T21:16:10.850Z,43.71
2023-05-17T21:18:54.514Z,45.03
2023-05-17T21:21:38.170Z,46.12
2023-05-17T21:24:24.599Z,48.38
2023-05-17T21:27:08.736Z,48.88
2023-05-17T21:29:52.362Z,48.28
2023-05-17T21:32:36.106Z,49.99
2023-05-17T21:35:19.788Z,48.70
2023-05-17T21:38:03.398Z,46.51
2023-05-17T21:40:47.096Z,47.08
2023-05-17T21:43:30.807Z,48.42
2023-05-17T21:46:14.487Z,48.87
2023-05-17T21:48:58.068Z,51.33
2023-05-17T21:51:43.933Z,51.62
2023-05-17T21:54:27.516Z,52.23
2023-05-17T21:57:11.129Z,50.95
2023-05-17T21:59:54.687Z,51.71
2023-05-17T22:02:40.001Z,52.92
2023-05-17T22:05:23.836Z,52.59
2023-05-17T22:08:07.467Z,53.33
2023-05-17T22:10:51.029Z,53.89
2023-05-17T22:13:34.653Z,53.69
2023-05-17T22:16:19.389Z,53.70
2023-05-17T22:19:10.301Z,53.86
2023-05-17T22:21:55.155Z,54.09
2023-05-17T22:24:38.793Z,54.31
2023-05-17T22:27:22.332Z,54.52
2023-05-17T22:30:07.779Z,53.71
2023-05-17T22:32:54.833Z,53.75
2023-05-17T22:35:41.210Z,51.54
2023-05-17T22:38:24.756Z,50.73
2023-05-17T22:41:10.225Z,49.44
2023-05-17T22:43:53.846Z,48.13
2023-05-17T22:46:38.791Z,48.52
2023-05-17T22:49:22.425Z,48.80
2023-05-17T22:52:07.860Z,48.89
2023-05-17T22:54:51.452Z,48.82
2023-05-17T22:57:35.024Z,47.79
2023-05-17T23:00:19.032Z,48.64
2023-05-17T23:03:02.661Z,48.83
2023-05-17T23:05:46.290Z,48.57
2023-05-17T23:08:30.487Z,50.08
2023-05-17T23:11:14.133Z,49.51
2023-05-17T23:13:57.855Z,49.51
2023-05-17T23:16:42.032Z,49.12
2023-05-17T23:19:25.627Z,50.36
2023-05-17T23:22:10.827Z,51.46
2023-05-17T23:24:55.913Z,53.15
2023-05-17T23:27:39.903Z,55.38
2023-05-17T23:30:24.725Z,55.53
2023-05-17T23:33:08.463Z,53.31
2023-05-17T23:35:53.664Z,53.66
2023-05-17T23:38:37.219Z,51.62
2023-05-17T23:41:24.011Z,52.06
2023-05-17T23:44:08.075Z,51.48
2023-05-17T23:46:53.935Z,52.64
2023-05-17T23:49:37.534Z,57.16
2023-05-17T23:52:21.332Z,57.83
2023-05-17T23:55:07.491Z,58.51
2023-05-17T23:57:51.843Z,58.74
